Bookmark and Share
Track history (hours):
 

Omaha

More information available from US FCC via Universal Licensing System and Coast Guard Vessel Documentation Center.

Last reported at 2014-Apr-22 12:29 UTC. Time now 2014-Apr-24 13:33 UTC.
Position N 29°56' W 089°59'.

Length 30 m; draft 3 m.

Type: Tow > 200 m length. MMSI: 367102030.

NotesDate/timePositionNaut miles runAvg speedWind from/ knotsBaromVisibWave heightAir tempDewpointWater temp
2014-Apr-22 12:29N 29°56' W 089°59'0 0.1
2014-Apr-22 09:25N 29°56' W 089°60'7 0.3
2014-Apr-21 08:31N 29°54' W 090°07'5 3.5
2014-Apr-21 07:05N 29°56' W 090°13'5 5.0
2014-Apr-21 06:04N 29°57' W 090°19'4 7.2
2014-Apr-21 05:32N 29°57' W 090°23'6 6.6
2014-Apr-21 04:33N 30°02' W 090°28'6 6.4
2014-Apr-21 03:33N 30°03' W 090°36'0 0.0
2014-Apr-21 02:33N 30°03' W 090°36'0 0.0
2014-Apr-21 01:33N 30°03' W 090°36'0 0.1
2014-Apr-21 00:33N 30°03' W 090°36'1 1.1
2014-Apr-20 23:33N 30°02' W 090°37'1 0.6
2014-Apr-20 22:33N 30°03' W 090°36'0 0.0
2014-Apr-20 21:33N 30°03' W 090°36'7 6.7
2014-Apr-20 20:33N 30°01' W 090°44'0 0.1
2014-Apr-20 19:33N 30°01' W 090°44'0 0.1
2014-Apr-20 18:33N 30°01' W 090°44'7 5.1
2014-Apr-20 17:07N 30°04' W 090°52'4 1.0
2014-Apr-20 13:21N 30°06' W 090°55'4 4.8
2014-Apr-20 12:33N 30°04' W 090°52'0 0.4
2014-Apr-20 11:33N 30°04' W 090°52'0 0.0
2014-Apr-20 10:33N 30°04' W 090°52'4 4.1
2014-Apr-20 09:33N 29°60' W 090°50'5 4.8
2014-Apr-20 08:33N 30°01' W 090°45'6 5.5
2014-Apr-20 07:33N 30°03' W 090°39'5 5.3
2014-Apr-20 06:33N 30°03' W 090°32'4 4.2
2014-Apr-20 05:33N 30°01' W 090°28'5 5.3
2014-Apr-20 04:33N 29°57' W 090°24'5 4.8
2014-Apr-20 03:33N 29°57' W 090°18'  
2014-Apr-17 10:22N 29°55' W 089°56'0 0.4
2014-Apr-17 09:16N 29°55' W 089°56'1 0.9
2014-Apr-17 08:32N 29°55' W 089°56'10 4.7
2014-Apr-17 06:25N 29°55' W 090°07'15 5.1
2014-Apr-17 03:33N 29°57' W 090°24'6 6.0
2014-Apr-17 02:33N 30°01' W 090°28'6 6.0
2014-Apr-17 01:33N 30°03' W 090°35'2 1.7
2014-Apr-17 00:33N 30°02' W 090°37'0 0.0
2014-Apr-16 23:33N 30°02' W 090°37'0 0.0
2014-Apr-16 22:33N 30°02' W 090°37'2 0.3
2014-Apr-16 16:22N 30°03' W 090°39'4 4.7
2014-Apr-16 15:33N 30°03' W 090°34'5 4.8
2014-Apr-16 14:32N 30°02' W 090°29'9 4.4
2014-Apr-16 12:31N 29°56' W 090°21'0 0.1
2014-Apr-16 11:31N 29°56' W 090°22'1 1.2
2014-Apr-16 10:32N 29°56' W 090°20'1 1.4
2014-Apr-16 09:30N 29°57' W 090°19'1 0.6
2014-Apr-16 08:30N 29°57' W 090°18'5 2.3
2014-Apr-16 06:23N 29°56' W 090°13'18 0.7
2014-Apr-15 03:33N 30°03' W 090°32'3 3.2
2014-Apr-15 02:34N 30°03' W 090°36'1 0.7
2014-Apr-15 01:34N 30°03' W 090°35'1 0.8
2014-Apr-15 00:34N 30°03' W 090°36'1 1.1
2014-Apr-14 23:34N 30°02' W 090°37'0 0.0
2014-Apr-14 22:34N 30°02' W 090°37'0 0.2
2014-Apr-14 21:33N 30°02' W 090°37'  

Dump ship's entire track history

sailing weather and tide predictions

Omaha — WDC9423 — position and weather